Time;durP1;ratioP1;P1;durP2;ratioP2;P2;SDS_P1;SDS_P2;PMS_P1;PMS_P2;Temp;Humidity;BMP_temperature;BMP_pressure;BME280_temperature;BME280_humidity;BME280_pressure;Samples;Min_cycle;Max_cycle;Signal;HPM_P1;HPM_P2
2022/06/18 00:01:42;;;;;;;11.23;2.70;;;;;;;;;;4918558;28;20065;-70
2022/06/18 00:04:25;;;;;;;13.60;2.80;;;;;;;;;;4961317;28;20520;-70
2022/06/18 00:06:59;;;;;;;10.63;2.70;;;;;;;;;;4949284;28;20047;-70
2022/06/18 00:09:35;;;;;;;14.05;3.03;;;;;;;;;;4939982;28;20095;-71
2022/06/18 00:14:58;;;;;;;10.60;3.13;;;;;;;;;;4943320;28;20061;-71
2022/06/18 00:17:27;;;;;;;9.63;3.30;;;;;;;;;;4965253;28;20061;-70
2022/06/18 00:19:56;;;;;;;9.65;3.20;;;;;;;;;;4957984;28;20117;-71
2022/06/18 00:22:27;;;;;;;13.98;3.22;;;;;;;;;;4964325;28;20048;-70
2022/06/18 00:24:55;;;;;;;15.05;3.30;;;;;;;;;;4960759;28;20044;-71
2022/06/18 00:27:24;;;;;;;13.00;3.13;;;;;;;;;;4959015;28;20699;-70
2022/06/18 00:29:53;;;;;;;12.50;3.33;;;;;;;;;;4938672;28;20430;-71
2022/06/18 00:32:21;;;;;;;10.38;3.03;;;;;;;;;;4947921;28;20065;-71
2022/06/18 00:34:49;;;;;;;14.38;3.60;;;;;;;;;;4955979;28;20034;-70
2022/06/18 00:37:28;;;;;;;14.20;3.55;;;;;;;;;;4951711;28;20448;-72
2022/06/18 00:39:57;;;;;;;10.15;2.70;;;;;;;;;;4938338;28;20114;-72
2022/06/18 00:42:29;;;;;;;10.82;3.03;;;;;;;;;;4937501;28;20081;-71
2022/06/18 00:44:59;;;;;;;12.15;2.63;;;;;;;;;;4944568;28;20035;-70
2022/06/18 00:47:38;;;;;;;8.88;2.50;;;;;;;;;;4924362;28;20122;-70
2022/06/18 00:50:15;;;;;;;9.43;2.80;;;;;;;;;;4938835;28;20062;-70
2022/06/18 00:53:19;;;;;;;8.20;2.65;;;;;;;;;;4943767;28;20027;-71
2022/06/18 00:56:04;;;;;;;9.13;3.08;;;;;;;;;;4856168;29;20037;-70
2022/06/18 00:58:35;;;;;;;14.00;3.33;;;;;;;;;;4863368;29;20535;-71
2022/06/18 01:01:03;;;;;;;14.77;3.97;;;;;;;;;;4862191;29;20491;-70
2022/06/18 01:03:31;;;;;;;12.18;4.20;;;;;;;;;;4866978;29;20052;-71
2022/06/18 01:05:59;;;;;;;10.63;4.00;;;;;;;;;;4859552;29;20037;-70
2022/06/18 01:08:27;;;;;;;16.17;4.53;;;;;;;;;;4870376;29;20036;-70
2022/06/18 01:10:55;;;;;;;10.73;3.85;;;;;;;;;;4851720;29;20075;-70
2022/06/18 01:13:23;;;;;;;17.80;4.05;;;;;;;;;;4854405;29;20079;-70
2022/06/18 01:15:50;;;;;;;12.40;3.67;;;;;;;;;;4858015;29;20036;-70
2022/06/18 01:18:16;;;;;;;14.27;3.83;;;;;;;;;;4873457;29;20100;-70
2022/06/18 01:20:48;;;;;;;12.20;3.42;;;;;;;;;;4855039;29;20272;-70
2022/06/18 01:23:17;;;;;;;10.88;3.45;;;;;;;;;;4866703;29;20490;-72
2022/06/18 01:25:44;;;;;;;10.38;2.70;;;;;;;;;;4850260;29;20036;-69
2022/06/18 01:28:13;;;;;;;10.05;2.65;;;;;;;;;;4876761;29;20490;-71
2022/06/18 01:30:40;;;;;;;13.90;2.97;;;;;;;;;;4940128;28;20193;-70
2022/06/18 01:33:08;;;;;;;12.82;3.08;;;;;;;;;;4946782;28;20058;-70
2022/06/18 01:35:37;;;;;;;14.38;3.30;;;;;;;;;;4936469;28;20314;-70
2022/06/18 01:38:04;;;;;;;8.60;2.95;;;;;;;;;;4943985;28;20390;-70
2022/06/18 01:40:45;;;;;;;12.10;3.55;;;;;;;;;;4947223;28;20476;-70
2022/06/18 01:43:14;;;;;;;13.85;3.50;;;;;;;;;;4940007;28;20031;-71
2022/06/18 01:45:41;;;;;;;14.30;3.70;;;;;;;;;;4944595;28;20031;-71
2022/06/18 01:48:10;;;;;;;10.85;3.55;;;;;;;;;;4947518;28;20026;-70
2022/06/18 01:50:40;;;;;;;11.68;3.97;;;;;;;;;;4939881;28;20034;-71
2022/06/18 01:53:18;;;;;;;11.93;3.40;;;;;;;;;;4947104;28;20038;-70
2022/06/18 01:55:49;;;;;;;10.65;2.88;;;;;;;;;;4944242;28;20112;-70
2022/06/18 01:58:32;;;;;;;13.52;3.35;;;;;;;;;;4927472;28;20039;-70
2022/06/18 02:01:04;;;;;;;14.02;3.22;;;;;;;;;;4925963;28;20031;-70
2022/06/18 02:03:32;;;;;;;14.82;3.70;;;;;;;;;;4925639;28;20053;-70
2022/06/18 02:06:04;;;;;;;16.38;3.30;;;;;;;;;;4943658;28;20451;-70
2022/06/18 02:08:31;;;;;;;12.13;3.15;;;;;;;;;;4943662;28;20022;-71
2022/06/18 02:11:06;;;;;;;14.15;4.20;;;;;;;;;;4942081;28;20394;-71
2022/06/18 02:13:34;;;;;;;;;;;;;;;;;;4949698;28;20030;-70
2022/06/18 02:16:14;;;;;;;16.70;4.28;;;;;;;;;;4944143;28;20057;-70
2022/06/18 02:18:47;;;;;;;16.30;4.90;;;;;;;;;;4948836;28;20026;-70
2022/06/18 02:21:27;;;;;;;14.15;3.83;;;;;;;;;;4949040;28;20031;-70
2022/06/18 02:23:56;;;;;;;11.32;3.50;;;;;;;;;;4957040;28;20557;-69
2022/06/18 02:26:45;;;;;;;12.77;3.28;;;;;;;;;;4946817;28;20023;-71
2022/06/18 02:29:29;;;;;;;11.18;2.88;;;;;;;;;;4943718;28;20130;-70
2022/06/18 02:31:58;;;;;;;14.48;3.13;;;;;;;;;;4940419;28;20042;-70
2022/06/18 02:34:30;;;;;;;15.98;3.20;;;;;;;;;;4924691;28;20549;-69
2022/06/18 02:37:00;;;;;;;12.38;3.08;;;;;;;;;;4939420;28;20038;-68
2022/06/18 02:39:54;;;;;;;15.10;3.28;;;;;;;;;;4920441;28;20412;-71
2022/06/18 02:42:23;;;;;;;10.48;2.80;;;;;;;;;;4949886;28;20032;-70
2022/06/18 02:44:52;;;;;;;10.93;3.00;;;;;;;;;;4943350;28;20050;-71
2022/06/18 02:47:21;;;;;;;14.60;3.20;;;;;;;;;;4948493;28;20447;-70
2022/06/18 02:50:00;;;;;;;12.75;2.85;;;;;;;;;;4943317;28;20031;-70
2022/06/18 02:52:34;;;;;;;12.48;2.90;;;;;;;;;;4940511;28;20121;-71
2022/06/18 02:55:09;;;;;;;11.95;3.30;;;;;;;;;;4942983;28;20844;-71
2022/06/18 02:57:37;;;;;;;10.77;2.92;;;;;;;;;;4927085;28;20428;-71
2022/06/18 03:00:05;;;;;;;14.23;2.90;;;;;;;;;;4941770;28;20035;-70
2022/06/18 03:02:32;;;;;;;11.15;3.00;;;;;;;;;;4945149;28;20026;-70
2022/06/18 03:04:58;;;;;;;12.80;2.55;;;;;;;;;;4934302;28;20073;-69
2022/06/18 03:07:24;;;;;;;14.27;3.22;;;;;;;;;;4955670;28;20045;-71
2022/06/18 03:12:35;;;;;;;13.13;2.88;;;;;;;;;;4945903;28;20118;-70
2022/06/18 03:15:01;;;;;;;13.23;2.97;;;;;;;;;;4941388;28;20038;-70
2022/06/18 03:17:27;;;;;;;13.88;3.03;;;;;;;;;;4948245;28;20030;-70
2022/06/18 03:19:57;;;;;;;12.88;3.10;;;;;;;;;;4940278;28;20093;-72
2022/06/18 03:22:24;;;;;;;14.02;3.58;;;;;;;;;;4923101;28;20158;-72
2022/06/18 03:24:50;;;;;;;12.85;3.42;;;;;;;;;;4918811;28;20126;-72
2022/06/18 03:27:17;;;;;;;14.30;3.38;;;;;;;;;;4937925;28;20096;-70
2022/06/18 03:29:46;;;;;;;18.50;3.78;;;;;;;;;;4940358;28;20042;-70
2022/06/18 03:32:12;;;;;;;15.38;3.38;;;;;;;;;;4927410;28;20031;-72
2022/06/18 03:34:38;;;;;;;13.77;3.05;;;;;;;;;;4943867;28;20106;-69
2022/06/18 03:37:04;;;;;;;19.20;4.00;;;;;;;;;;4939133;28;20026;-70
2022/06/18 03:39:30;;;;;;;13.73;3.42;;;;;;;;;;4943378;28;20041;-72
2022/06/18 03:41:58;;;;;;;10.52;2.55;;;;;;;;;;4921877;28;20435;-71
2022/06/18 03:44:25;;;;;;;11.88;3.00;;;;;;;;;;4939645;28;20039;-71
2022/06/18 03:46:52;;;;;;;14.32;2.90;;;;;;;;;;4937405;28;20142;-71
2022/06/18 03:49:26;;;;;;;16.00;3.13;;;;;;;;;;4941817;28;20369;-71
2022/06/18 03:51:54;;;;;;;12.73;2.70;;;;;;;;;;4939758;28;20053;-71
2022/06/18 03:54:24;;;;;;;10.85;2.70;;;;;;;;;;4939344;28;20050;-71
2022/06/18 03:56:53;;;;;;;13.63;3.00;;;;;;;;;;4937940;28;20034;-71
2022/06/18 03:59:21;;;;;;;11.23;2.95;;;;;;;;;;4939686;28;20422;-72
2022/06/18 04:01:51;;;;;;;10.27;2.90;;;;;;;;;;4937582;28;20418;-70
2022/06/18 04:04:20;;;;;;;15.32;3.35;;;;;;;;;;4922222;28;20035;-70
2022/06/18 04:06:47;;;;;;;13.25;3.15;;;;;;;;;;4935263;28;20589;-70
2022/06/18 04:09:15;;;;;;;12.43;3.15;;;;;;;;;;4904758;29;20545;-70
2022/06/18 04:11:43;;;;;;;13.38;2.88;;;;;;;;;;4916067;28;20051;-70
2022/06/18 04:14:12;;;;;;;10.07;2.70;;;;;;;;;;4916846;28;20118;-69
2022/06/18 04:16:39;;;;;;;12.90;2.83;;;;;;;;;;4901798;28;20150;-69
2022/06/18 04:19:09;;;;;;;14.77;3.20;;;;;;;;;;4909846;28;20049;-70
2022/06/18 04:21:38;;;;;;;11.10;2.95;;;;;;;;;;4918138;28;20039;-70
2022/06/18 04:24:07;;;;;;;15.90;3.30;;;;;;;;;;4916375;28;20051;-70
2022/06/18 04:26:35;;;;;;;14.27;3.42;;;;;;;;;;4917844;28;20334;-70
2022/06/18 04:29:04;;;;;;;15.35;3.83;;;;;;;;;;4917043;28;20426;-70
2022/06/18 04:31:31;;;;;;;13.30;2.75;;;;;;;;;;4914905;28;20044;-70
2022/06/18 04:33:58;;;;;;;15.27;3.38;;;;;;;;;;4902540;28;20797;-71
2022/06/18 04:36:38;;;;;;;21.35;3.20;;;;;;;;;;4920579;28;20046;-71
2022/06/18 04:39:07;;;;;;;12.55;2.70;;;;;;;;;;4902571;28;20070;-71
2022/06/18 04:41:36;;;;;;;12.15;2.88;;;;;;;;;;4921180;28;20403;-71
2022/06/18 04:44:05;;;;;;;12.18;2.95;;;;;;;;;;4919363;28;20513;-70
2022/06/18 04:46:35;;;;;;;13.82;3.10;;;;;;;;;;4922707;28;20149;-71
2022/06/18 04:49:03;;;;;;;11.93;2.83;;;;;;;;;;4917465;28;20039;-71
2022/06/18 04:51:33;;;;;;;17.15;3.22;;;;;;;;;;4925159;28;20035;-71
2022/06/18 04:54:03;;;;;;;12.25;2.83;;;;;;;;;;4949859;28;20185;-71
2022/06/18 04:56:29;;;;;;;12.98;3.00;;;;;;;;;;4959767;28;20038;-71
2022/06/18 04:58:55;;;;;;;11.27;3.10;;;;;;;;;;4939300;28;20541;-71
2022/06/18 05:01:27;;;;;;;11.40;2.88;;;;;;;;;;4960501;28;20156;-71
2022/06/18 05:03:53;;;;;;;9.10;2.50;;;;;;;;;;4944590;28;20030;-71
2022/06/18 05:06:21;;;;;;;11.82;3.03;;;;;;;;;;4960439;28;20038;-71
2022/06/18 05:08:48;;;;;;;11.10;3.17;;;;;;;;;;4957711;28;20058;-72
2022/06/18 05:11:15;;;;;;;14.10;2.90;;;;;;;;;;4961885;28;20023;-71
2022/06/18 05:13:41;;;;;;;12.88;2.67;;;;;;;;;;4961798;28;20113;-72
2022/06/18 05:16:08;;;;;;;12.70;3.28;;;;;;;;;;4957458;28;20038;-71
2022/06/18 05:18:46;;;;;;;10.48;2.72;;;;;;;;;;4960250;28;20117;-71
2022/06/18 05:21:16;;;;;;;16.75;3.08;;;;;;;;;;4941879;28;20038;-71
2022/06/18 05:23:42;;;;;;;14.02;2.42;;;;;;;;;;4958979;28;20136;-71
2022/06/18 05:26:09;;;;;;;24.80;3.13;;;;;;;;;;4939779;28;20034;-71
2022/06/18 05:28:36;;;;;;;17.90;2.70;;;;;;;;;;4965828;28;20046;-71
2022/06/18 05:31:02;;;;;;;24.83;3.25;;;;;;;;;;4962600;28;20121;-72
2022/06/18 05:33:31;;;;;;;18.70;3.33;;;;;;;;;;4950138;28;20026;-71
2022/06/18 05:35:57;;;;;;;24.30;2.70;;;;;;;;;;4964696;28;20404;-71
2022/06/18 05:38:24;;;;;;;18.40;2.85;;;;;;;;;;4972668;28;20573;-71
2022/06/18 05:40:50;;;;;;;14.80;3.05;;;;;;;;;;4965118;28;20385;-71
2022/06/18 05:43:17;;;;;;;14.02;2.83;;;;;;;;;;4970618;28;20026;-71
2022/06/18 05:45:44;;;;;;;11.27;2.80;;;;;;;;;;4965202;28;20077;-71
2022/06/18 05:48:11;;;;;;;12.00;2.47;;;;;;;;;;4954602;28;20057;-71
2022/06/18 05:50:38;;;;;;;10.23;2.30;;;;;;;;;;4952411;28;20827;-71
2022/06/18 05:53:04;;;;;;;11.50;3.05;;;;;;;;;;4960871;28;20030;-70
2022/06/18 05:55:33;;;;;;;9.80;2.83;;;;;;;;;;4945279;28;20037;-71
2022/06/18 05:58:01;;;;;;;8.95;2.03;;;;;;;;;;4963822;28;20036;-70
2022/06/18 06:00:34;;;;;;;8.70;2.40;;;;;;;;;;4966445;28;20045;-71
2022/06/18 06:03:02;;;;;;;11.00;2.42;;;;;;;;;;4937941;28;20071;-71
2022/06/18 06:05:32;;;;;;;9.02;2.30;;;;;;;;;;4963793;28;20031;-71
2022/06/18 06:07:59;;;;;;;9.40;2.40;;;;;;;;;;4961165;28;20026;-72
2022/06/18 06:13:16;;;;;;;14.43;2.80;;;;;;;;;;4963374;28;20354;-71
2022/06/18 06:15:49;;;;;;;11.90;2.97;;;;;;;;;;4957697;28;20200;-72
2022/06/18 06:18:18;;;;;;;12.13;2.50;;;;;;;;;;4968332;28;20022;-72
2022/06/18 06:20:47;;;;;;;9.52;2.40;;;;;;;;;;4957965;28;20038;-72
2022/06/18 06:23:16;;;;;;;9.68;2.40;;;;;;;;;;4931639;28;20035;-72
2022/06/18 06:25:45;;;;;;;12.77;2.17;;;;;;;;;;4960103;28;20140;-71
2022/06/18 06:28:17;;;;;;;12.18;2.50;;;;;;;;;;4945294;28;20057;-71
2022/06/18 06:30:46;;;;;;;13.48;2.70;;;;;;;;;;4926861;28;20423;-71
2022/06/18 06:33:14;;;;;;;12.27;2.45;;;;;;;;;;4950579;28;20034;-72
2022/06/18 06:35:45;;;;;;;10.13;2.40;;;;;;;;;;4937631;28;20038;-73
2022/06/18 06:38:14;;;;;;;10.50;2.30;;;;;;;;;;4923282;28;20038;-72
2022/06/18 06:40:46;;;;;;;11.07;2.80;;;;;;;;;;4931208;28;20045;-71
2022/06/18 06:43:19;;;;;;;15.48;2.50;;;;;;;;;;4950683;28;20108;-70
2022/06/18 06:45:45;;;;;;;8.63;2.10;;;;;;;;;;4957769;28;20031;-70
2022/06/18 06:48:13;;;;;;;11.00;2.40;;;;;;;;;;4951011;28;20027;-71
2022/06/18 06:50:42;;;;;;;8.98;2.10;;;;;;;;;;4918865;28;20763;-71
2022/06/18 06:53:11;;;;;;;10.50;2.30;;;;;;;;;;4964638;28;20050;-72
2022/06/18 06:58:23;;;;;;;12.13;2.73;;;;;;;;;;4953838;28;20131;-71
2022/06/18 07:00:53;;;;;;;10.38;2.20;;;;;;;;;;4943647;28;20037;-70
2022/06/18 07:03:21;;;;;;;10.32;2.22;;;;;;;;;;4935987;28;20122;-69
2022/06/18 07:05:49;;;;;;;9.63;2.33;;;;;;;;;;4950511;28;20035;-64
2022/06/18 07:08:26;;;;;;;12.05;2.63;;;;;;;;;;4960061;28;20030;-65
2022/06/18 07:10:53;;;;;;;12.15;2.90;;;;;;;;;;4946555;28;20125;-64
2022/06/18 07:13:21;;;;;;;9.50;2.40;;;;;;;;;;4946526;28;20030;-65
2022/06/18 07:15:49;;;;;;;8.48;2.40;;;;;;;;;;4937896;28;20101;-66
2022/06/18 07:18:18;;;;;;;10.65;2.55;;;;;;;;;;4953263;28;20031;-65
2022/06/18 07:20:45;;;;;;;11.95;2.33;;;;;;;;;;4936206;28;20125;-65
2022/06/18 07:23:12;;;;;;;11.15;2.20;;;;;;;;;;4938213;28;20119;-65
2022/06/18 07:25:40;;;;;;;10.52;2.47;;;;;;;;;;4942575;28;20041;-65
2022/06/18 07:28:06;;;;;;;7.72;2.20;;;;;;;;;;4953528;28;20050;-65
2022/06/18 07:30:33;;;;;;;10.15;2.00;;;;;;;;;;4946356;28;20061;-65
2022/06/18 07:32:59;;;;;;;6.70;2.20;;;;;;;;;;4957410;28;20392;-65
2022/06/18 07:35:27;;;;;;;10.77;2.50;;;;;;;;;;4956322;28;20453;-65
2022/06/18 07:38:04;;;;;;;7.55;2.30;;;;;;;;;;4957245;28;20034;-65
2022/06/18 07:40:36;;;;;;;9.80;2.30;;;;;;;;;;4942441;28;20026;-65
2022/06/18 07:43:07;;;;;;;5.88;1.90;;;;;;;;;;4969475;28;20124;-64
2022/06/18 07:45:33;;;;;;;8.25;1.95;;;;;;;;;;4939661;28;20459;-65
2022/06/18 07:48:21;;;;;;;9.35;2.58;;;;;;;;;;4965566;28;20102;-65
2022/06/18 07:50:48;;;;;;;9.23;2.08;;;;;;;;;;4961728;28;20030;-73
2022/06/18 07:53:16;;;;;;;9.93;2.30;;;;;;;;;;4946171;28;20038;-71
2022/06/18 07:55:45;;;;;;;8.55;2.10;;;;;;;;;;4952053;28;20046;-71
2022/06/18 07:58:14;;;;;;;8.90;2.55;;;;;;;;;;4942993;28;20066;-72
2022/06/18 08:00:42;;;;;;;10.18;2.45;;;;;;;;;;4957016;28;20069;-71
2022/06/18 08:03:28;;;;;;;8.50;2.45;;;;;;;;;;4965000;28;20049;-71
2022/06/18 08:05:55;;;;;;;7.30;2.10;;;;;;;;;;4956323;28;20445;-71
2022/06/18 08:08:23;;;;;;;10.65;2.90;;;;;;;;;;4966484;28;20587;-72
2022/06/18 08:10:52;;;;;;;12.05;2.63;;;;;;;;;;4959325;28;20403;-71
2022/06/18 08:13:22;;;;;;;11.75;2.70;;;;;;;;;;4958913;28;20040;-71
2022/06/18 08:15:58;;;;;;;10.45;2.83;;;;;;;;;;4936989;28;20461;-72
2022/06/18 08:18:25;;;;;;;9.32;2.33;;;;;;;;;;4943108;28;20609;-71
2022/06/18 08:20:54;;;;;;;9.73;2.67;;;;;;;;;;4955491;28;20097;-71
2022/06/18 08:23:23;;;;;;;10.50;2.60;;;;;;;;;;4962453;28;20063;-71
2022/06/18 08:25:51;;;;;;;11.77;2.50;;;;;;;;;;4956975;28;20061;-71
2022/06/18 08:28:20;;;;;;;11.60;2.67;;;;;;;;;;4950037;28;20051;-71
2022/06/18 08:30:47;;;;;;;12.60;2.72;;;;;;;;;;4940609;28;20039;-72
2022/06/18 08:33:18;;;;;;;10.68;2.70;;;;;;;;;;4945768;28;20038;-72
2022/06/18 08:35:47;;;;;;;10.48;2.50;;;;;;;;;;4915332;28;20473;-71
2022/06/18 08:38:19;;;;;;;11.85;2.75;;;;;;;;;;4928373;28;20050;-72
2022/06/18 08:41:04;;;;;;;8.95;2.35;;;;;;;;;;4949325;28;20047;-71
2022/06/18 08:43:49;;;;;;;13.07;2.90;;;;;;;;;;4941964;28;20031;-71
2022/06/18 08:46:34;;;;;;;11.65;2.70;;;;;;;;;;4942339;28;20027;-71
2022/06/18 08:49:18;;;;;;;9.15;2.10;;;;;;;;;;4938479;28;20038;-73
2022/06/18 08:52:04;;;;;;;15.50;3.63;;;;;;;;;;4931106;28;20041;-71
2022/06/18 08:54:40;;;;;;;12.48;3.10;;;;;;;;;;4940534;28;20228;-73
2022/06/18 08:57:08;;;;;;;15.57;4.38;;;;;;;;;;4936057;28;20315;-71
2022/06/18 08:59:52;;;;;;;15.57;3.80;;;;;;;;;;4946414;28;21159;-72
2022/06/18 09:02:28;;;;;;;15.48;3.75;;;;;;;;;;4934541;28;20121;-72
2022/06/18 09:04:55;;;;;;;13.55;3.35;;;;;;;;;;4937274;28;20030;-71
2022/06/18 09:07:40;;;;;;;9.82;2.70;;;;;;;;;;4940338;28;20296;-72
2022/06/18 09:10:15;;;;;;;8.23;2.78;;;;;;;;;;4940390;28;20026;-70
2022/06/18 09:12:41;;;;;;;;;;;;;;;;;;4954559;28;20042;-72
2022/06/18 09:15:10;;;;;;;9.52;2.72;;;;;;;;;;4944573;28;19926;-72
2022/06/18 09:17:51;;;;;;;12.40;3.10;;;;;;;;;;4965069;28;20054;-72
2022/06/18 09:20:30;;;;;;;7.97;2.50;;;;;;;;;;4948692;28;20034;-66
2022/06/18 09:23:07;;;;;;;8.80;2.80;;;;;;;;;;4938784;28;20042;-66
2022/06/18 09:25:39;;;;;;;8.13;2.40;;;;;;;;;;4935330;28;20035;-65
2022/06/18 09:28:08;;;;;;;9.30;2.67;;;;;;;;;;4925066;28;20043;-65
2022/06/18 09:30:53;;;;;;;9.82;2.67;;;;;;;;;;4971785;28;20122;-66
2022/06/18 09:33:25;;;;;;;10.35;2.65;;;;;;;;;;4972875;28;20333;-64
2022/06/18 09:36:01;;;;;;;13.95;2.75;;;;;;;;;;4959188;28;20027;-64
2022/06/18 09:38:27;;;;;;;8.90;2.67;;;;;;;;;;4961796;28;20035;-65
2022/06/18 09:40:58;;;;;;;8.85;2.38;;;;;;;;;;4958810;28;20108;-65
2022/06/18 09:43:42;;;;;;;10.43;2.85;;;;;;;;;;4960377;28;20428;-67
2022/06/18 09:46:18;;;;;;;12.65;2.78;;;;;;;;;;4967604;28;20405;-65
2022/06/18 09:48:45;;;;;;;11.45;2.80;;;;;;;;;;4957797;28;20033;-65
2022/06/18 09:51:42;;;;;;;8.40;2.65;;;;;;;;;;4959207;28;21160;-65
2022/06/18 09:54:10;;;;;;;9.90;2.58;;;;;;;;;;4882670;28;20092;-65
2022/06/18 09:56:45;;;;;;;7.40;2.40;;;;;;;;;;4955554;28;20596;-65
2022/06/18 09:59:28;;;;;;;8.13;2.60;;;;;;;;;;4947801;28;20070;-65
2022/06/18 10:02:01;;;;;;;9.15;2.45;;;;;;;;;;4950827;28;20045;-64
2022/06/18 10:07:40;;;;;;;9.85;2.50;;;;;;;;;;4972544;28;20076;-65
2022/06/18 10:10:31;;;;;;;9.35;2.70;;;;;;;;;;4958572;28;20026;-65
2022/06/18 10:13:15;;;;;;;15.13;3.50;;;;;;;;;;4959967;28;20042;-65
2022/06/18 10:15:44;;;;;;;12.48;2.85;;;;;;;;;;4969676;28;20077;-70
2022/06/18 10:18:14;;;;;;;9.10;2.40;;;;;;;;;;4971174;28;20612;-70
2022/06/18 10:21:00;;;;;;;12.13;2.72;;;;;;;;;;4968086;28;20023;-70
2022/06/18 10:23:45;;;;;;;9.27;2.63;;;;;;;;;;4977274;28;20038;-71
2022/06/18 10:26:24;;;;;;;12.10;3.25;;;;;;;;;;4959320;28;20400;-70
2022/06/18 10:29:09;;;;;;;8.77;3.00;;;;;;;;;;4951163;28;20065;-70
2022/06/18 10:31:37;;;;;;;19.48;3.50;;;;;;;;;;4942984;28;20030;-72
2022/06/18 10:34:16;;;;;;;10.75;3.22;;;;;;;;;;4957762;28;20039;-73
2022/06/18 10:37:02;;;;;;;9.98;2.72;;;;;;;;;;4940551;28;20341;-70
2022/06/18 10:39:48;;;;;;;11.85;2.42;;;;;;;;;;4946893;28;20515;-71
2022/06/18 10:42:35;;;;;;;12.73;2.67;;;;;;;;;;4935141;28;20655;-71
2022/06/18 10:45:05;;;;;;;9.25;2.63;;;;;;;;;;4937141;28;20082;-72
2022/06/18 10:47:35;;;;;;;8.95;2.60;;;;;;;;;;4948175;28;20767;-71
2022/06/18 10:50:05;;;;;;;13.38;3.00;;;;;;;;;;4935963;28;20061;-71
2022/06/18 10:52:32;;;;;;;11.43;2.83;;;;;;;;;;4933636;28;20507;-71
2022/06/18 10:55:10;;;;;;;9.95;2.42;;;;;;;;;;4963380;28;20034;-72
2022/06/18 10:57:37;;;;;;;9.57;2.40;;;;;;;;;;4950785;28;20042;-72
2022/06/18 11:00:12;;;;;;;7.15;2.53;;;;;;;;;;4947370;28;20038;-72
2022/06/18 11:02:42;;;;;;;9.30;2.45;;;;;;;;;;4969786;28;20058;-72
2022/06/18 11:05:19;;;;;;;10.35;2.60;;;;;;;;;;4959952;28;20037;-72
2022/06/18 11:07:49;;;;;;;9.20;2.33;;;;;;;;;;4947255;28;20029;-72
2022/06/18 11:10:27;;;;;;;10.48;2.67;;;;;;;;;;4931875;28;20125;-72
2022/06/18 11:12:55;;;;;;;11.88;2.88;;;;;;;;;;4936217;28;20459;-71
2022/06/18 11:15:28;;;;;;;8.82;2.60;;;;;;;;;;4944628;28;20433;-71
2022/06/18 11:17:55;;;;;;;9.23;2.50;;;;;;;;;;4931060;28;20043;-71
2022/06/18 11:20:25;;;;;;;10.02;2.67;;;;;;;;;;4951935;28;20138;-71
2022/06/18 11:23:11;;;;;;;7.63;2.80;;;;;;;;;;4939142;28;20035;-71
2022/06/18 11:25:40;;;;;;;13.15;2.58;;;;;;;;;;4936682;28;20038;-70
2022/06/18 11:28:13;;;;;;;8.80;2.53;;;;;;;;;;4945006;28;20043;-71
2022/06/18 11:30:43;;;;;;;9.88;2.95;;;;;;;;;;4948204;28;20046;-70
2022/06/18 11:33:21;;;;;;;11.20;2.83;;;;;;;;;;4946783;28;20435;-71
2022/06/18 11:35:50;;;;;;;12.85;3.47;;;;;;;;;;4957673;28;20551;-71
2022/06/18 11:38:33;;;;;;;9.32;3.00;;;;;;;;;;4949181;28;20345;-71
2022/06/18 11:41:01;;;;;;;8.43;2.95;;;;;;;;;;4941177;28;20512;-70
2022/06/18 11:43:36;;;;;;;10.00;2.85;;;;;;;;;;4966144;28;20736;-70
2022/06/18 11:46:07;;;;;;;9.73;2.88;;;;;;;;;;4970424;28;21209;-70
2022/06/18 11:48:40;;;;;;;11.60;3.10;;;;;;;;;;4961472;28;20092;-71
2022/06/18 11:51:18;;;;;;;11.50;2.72;;;;;;;;;;4967816;28;20336;-71
2022/06/18 11:54:05;;;;;;;8.98;2.65;;;;;;;;;;4961208;28;20033;-71
2022/06/18 11:57:01;;;;;;;12.05;2.75;;;;;;;;;;4959362;28;20461;-71
2022/06/18 11:59:40;;;;;;;9.85;2.60;;;;;;;;;;4917040;28;20398;-73
2022/06/18 12:02:26;;;;;;;9.05;2.60;;;;;;;;;;4918617;28;20581;-72
2022/06/18 12:05:10;;;;;;;10.43;2.97;;;;;;;;;;4902254;28;20162;-72
2022/06/18 12:07:44;;;;;;;10.23;3.00;;;;;;;;;;4916749;28;20446;-72
2022/06/18 12:10:14;;;;;;;11.38;2.78;;;;;;;;;;4902025;29;20108;-72
2022/06/18 12:13:02;;;;;;;11.00;2.75;;;;;;;;;;4901145;29;20303;-72
2022/06/18 12:15:45;;;;;;;9.88;2.70;;;;;;;;;;4915262;28;20039;-72
2022/06/18 12:18:30;;;;;;;10.20;3.08;;;;;;;;;;4914608;28;20043;-71
2022/06/18 12:21:19;;;;;;;9.43;2.50;;;;;;;;;;4896370;28;20483;-72
2022/06/18 12:24:05;;;;;;;13.40;2.95;;;;;;;;;;4912778;28;20405;-70
2022/06/18 12:27:00;;;;;;;7.60;2.42;;;;;;;;;;4912159;29;20034;-72
2022/06/18 12:29:48;;;;;;;15.98;2.80;;;;;;;;;;4898017;29;20062;-70
2022/06/18 12:32:31;;;;;;;8.35;2.42;;;;;;;;;;4899330;29;20778;-71
2022/06/18 12:35:03;;;;;;;11.48;2.55;;;;;;;;;;4881678;29;20068;-72
2022/06/18 12:37:49;;;;;;;9.30;2.40;;;;;;;;;;4904838;28;20090;-72
2022/06/18 12:40:36;;;;;;;10.60;2.72;;;;;;;;;;4925197;28;20099;-72
2022/06/18 12:43:23;;;;;;;15.05;3.00;;;;;;;;;;4921399;28;20146;-72
2022/06/18 12:46:10;;;;;;;8.05;2.13;;;;;;;;;;4922560;28;20043;-72
2022/06/18 12:48:57;;;;;;;11.77;2.30;;;;;;;;;;4906599;28;20034;-71
2022/06/18 12:51:48;;;;;;;8.45;2.42;;;;;;;;;;4924098;28;20728;-72
2022/06/18 12:54:39;;;;;;;8.95;2.40;;;;;;;;;;4924422;28;20122;-70
2022/06/18 12:57:19;;;;;;;10.77;2.60;;;;;;;;;;4922517;28;20043;-73
2022/06/18 12:59:48;;;;;;;9.20;2.28;;;;;;;;;;4929030;28;20043;-74
2022/06/18 13:02:20;;;;;;;9.23;2.40;;;;;;;;;;4924725;28;20047;-72
2022/06/18 13:04:46;;;;;;;9.60;2.10;;;;;;;;;;4925944;28;20071;-72
2022/06/18 13:07:31;;;;;;;7.90;2.10;;;;;;;;;;4969848;28;20030;-70
2022/06/18 13:10:16;;;;;;;10.95;2.50;;;;;;;;;;4963383;28;20512;-72
2022/06/18 13:13:00;;;;;;;10.48;2.20;;;;;;;;;;4961992;28;20033;-72
2022/06/18 13:15:31;;;;;;;;;;;;;;;;;;4958804;28;20063;-73
2022/06/18 13:18:03;;;;;;;10.25;2.35;;;;;;;;;;4966461;28;19968;-73
2022/06/18 13:20:50;;;;;;;9.20;2.50;;;;;;;;;;4963968;28;20036;-72
2022/06/18 13:29:07;;;;;;;8.25;2.03;;;;;;;;;;4963110;28;20100;-72
2022/06/18 13:31:52;;;;;;;7.55;2.05;;;;;;;;;;4962672;28;20499;-72
2022/06/18 13:34:46;;;;;;;10.73;2.28;;;;;;;;;;4964138;28;20551;-70
2022/06/18 13:37:25;;;;;;;7.75;2.20;;;;;;;;;;4961583;28;20493;-71
2022/06/18 13:39:51;;;;;;;8.32;2.10;;;;;;;;;;4958379;28;20090;-72
2022/06/18 13:42:32;;;;;;;9.63;2.63;;;;;;;;;;4947407;28;20568;-72
2022/06/18 13:45:14;;;;;;;8.43;2.10;;;;;;;;;;4957775;28;20093;-71
2022/06/18 13:47:43;;;;;;;9.73;2.30;;;;;;;;;;4961049;28;20306;-71
2022/06/18 13:50:20;;;;;;;7.78;2.35;;;;;;;;;;4955540;28;20105;-71
2022/06/18 13:52:47;;;;;;;7.30;2.00;;;;;;;;;;4949050;28;20212;-73
2022/06/18 13:55:27;;;;;;;13.25;2.65;;;;;;;;;;4963036;28;20039;-72
2022/06/18 13:57:55;;;;;;;8.10;2.20;;;;;;;;;;4962564;28;20062;-72
2022/06/18 14:00:36;;;;;;;9.45;2.28;;;;;;;;;;4964865;28;20431;-72
2022/06/18 14:03:12;;;;;;;8.65;2.63;;;;;;;;;;4971886;28;20836;-70
2022/06/18 14:05:54;;;;;;;8.50;2.35;;;;;;;;;;4966149;28;20503;-70
2022/06/18 14:08:47;;;;;;;8.70;2.35;;;;;;;;;;4972396;28;20034;-70
2022/06/18 14:11:27;;;;;;;9.02;2.15;;;;;;;;;;4968955;28;20567;-70
2022/06/18 14:13:57;;;;;;;7.97;2.10;;;;;;;;;;4945005;28;20092;-70
2022/06/18 14:16:43;;;;;;;8.25;2.22;;;;;;;;;;4968221;28;20590;-70
2022/06/18 14:19:23;;;;;;;7.85;1.98;;;;;;;;;;4935283;28;20057;-69
2022/06/18 14:22:01;;;;;;;7.55;1.95;;;;;;;;;;4958872;28;20030;-69
2022/06/18 14:24:37;;;;;;;8.95;2.42;;;;;;;;;;4953943;28;20462;-70
2022/06/18 14:27:07;;;;;;;8.57;2.20;;;;;;;;;;4935314;28;20722;-69
2022/06/18 14:29:43;;;;;;;9.45;2.38;;;;;;;;;;4944211;28;20178;-69
2022/06/18 14:32:31;;;;;;;8.25;2.63;;;;;;;;;;4949642;28;20026;-69
2022/06/18 14:35:22;;;;;;;9.95;2.42;;;;;;;;;;4944303;28;20038;-71
2022/06/18 14:38:10;;;;;;;9.07;2.60;;;;;;;;;;4862947;29;20670;-71
2022/06/18 14:43:44;;;;;;;8.57;2.33;;;;;;;;;;4860394;29;20241;-70
2022/06/18 14:46:32;;;;;;;7.80;2.30;;;;;;;;;;4864431;29;20539;-70
2022/06/18 14:49:19;;;;;;;8.25;2.10;;;;;;;;;;4859636;29;20204;-71
2022/06/18 14:52:14;;;;;;;8.75;2.20;;;;;;;;;;4848921;29;20044;-70
2022/06/18 14:54:48;;;;;;;9.13;2.40;;;;;;;;;;4862270;29;20548;-71
2022/06/18 14:57:36;;;;;;;8.88;2.30;;;;;;;;;;4859641;29;20279;-71
2022/06/18 15:00:21;;;;;;;7.43;2.20;;;;;;;;;;4844640;29;20542;-70
2022/06/18 15:03:07;;;;;;;9.18;2.53;;;;;;;;;;4862518;29;20485;-72
2022/06/18 15:05:38;;;;;;;9.75;2.30;;;;;;;;;;4865218;29;20040;-72
2022/06/18 15:08:12;;;;;;;7.80;2.45;;;;;;;;;;4849104;29;20079;-73
2022/06/18 15:10:49;;;;;;;9.70;2.47;;;;;;;;;;4861220;29;20179;-73
2022/06/18 15:13:15;;;;;;;10.65;2.80;;;;;;;;;;4852542;29;20028;-73
2022/06/18 15:18:58;;;;;;;8.43;2.60;;;;;;;;;;4941352;28;20037;-72
2022/06/18 15:21:33;;;;;;;9.95;2.50;;;;;;;;;;4949271;28;20105;-72
2022/06/18 15:24:04;;;;;;;10.48;2.50;;;;;;;;;;4937444;28;20039;-73
2022/06/18 15:26:33;;;;;;;10.55;2.60;;;;;;;;;;4928004;28;20041;-73
2022/06/18 15:29:08;;;;;;;8.50;1.90;;;;;;;;;;4945014;28;20482;-73
2022/06/18 15:31:41;;;;;;;7.78;2.58;;;;;;;;;;4937045;28;20059;-73
2022/06/18 15:34:25;;;;;;;8.57;2.35;;;;;;;;;;4925947;28;20031;-73
2022/06/18 15:37:14;;;;;;;9.57;2.20;;;;;;;;;;4922879;28;20034;-73
2022/06/18 15:39:49;;;;;;;11.02;2.58;;;;;;;;;;4944981;28;20018;-73